RYR82 EETN-ESSA
Flight info
| Callsign | RYR82 |
|---|---|
| Flight time | 0h 45m |
| Altitude | 34000 |
| Route | PETOT DCT RUNGA N872 XILAN |
| Aircraft | B738/M-SDE2E3FGHIRWXY/LB1 |
Departure
| Time | 2026-05-05 16:03 |
|---|---|
| Airport | Lennart Meri Tallinn Airport (EETN) |
Arrival
| Time | 2026-05-05 16:48 |
|---|---|
| Airport | Stockholm-Arlanda Airport (ESSA) |
| Time | Latitude | Longitude | Altitude | Speed | Heading |
|---|---|---|---|---|---|
| 2026-05-05 15:24 | 59.41694 | 24.80122 | 161 ft | 0 kts | 181° |
| 2026-05-05 15:43 | 59.41695 | 24.80122 | 161 ft | 0 kts | 181° |
| 2026-05-05 15:47 | 59.41714 | 24.80123 | 161 ft | 4 kts | 180° |
| 2026-05-05 15:47 | 59.41740 | 24.80118 | 161 ft | 4 kts | 153° |
| 2026-05-05 15:48 | 59.41750 | 24.80098 | 161 ft | 1 kts | 91° |
| 2026-05-05 15:51 | 59.41750 | 24.80102 | 161 ft | 2 kts | 91° |
| 2026-05-05 15:51 | 59.41750 | 24.80165 | 161 ft | 6 kts | 91° |
| 2026-05-05 15:52 | 59.41748 | 24.80239 | 161 ft | 5 kts | 91° |
| 2026-05-05 15:52 | 59.41745 | 24.80314 | 161 ft | 5 kts | 99° |
| 2026-05-05 15:52 | 59.41738 | 24.80384 | 161 ft | 5 kts | 101° |
| 2026-05-05 15:52 | 59.41727 | 24.80452 | 161 ft | 6 kts | 125° |
| 2026-05-05 15:53 | 59.41683 | 24.80503 | 161 ft | 10 kts | 165° |
| 2026-05-05 15:53 | 59.41603 | 24.80510 | 161 ft | 12 kts | 181° |
| 2026-05-05 15:53 | 59.41525 | 24.80530 | 161 ft | 11 kts | 143° |
| 2026-05-05 15:53 | 59.41505 | 24.80674 | 161 ft | 11 kts | 89° |
| 2026-05-05 15:54 | 59.41506 | 24.80823 | 161 ft | 11 kts | 90° |
| 2026-05-05 15:54 | 59.41506 | 24.80969 | 161 ft | 10 kts | 91° |
| 2026-05-05 15:54 | 59.41505 | 24.81110 | 161 ft | 10 kts | 90° |
| 2026-05-05 15:54 | 59.41505 | 24.81262 | 161 ft | 15 kts | 90° |
| 2026-05-05 15:55 | 59.41505 | 24.81475 | 161 ft | 16 kts | 90° |
| 2026-05-05 15:55 | 59.41505 | 24.81687 | 161 ft | 15 kts | 89° |
| 2026-05-05 15:55 | 59.41503 | 24.81890 | 161 ft | 15 kts | 90° |
| 2026-05-05 15:55 | 59.41502 | 24.82084 | 161 ft | 14 kts | 90° |
| 2026-05-05 15:56 | 59.41502 | 24.82269 | 161 ft | 13 kts | 90° |
| 2026-05-05 15:56 | 59.41502 | 24.82447 | 161 ft | 13 kts | 90° |
| 2026-05-05 15:56 | 59.41502 | 24.82620 | 161 ft | 13 kts | 90° |
| 2026-05-05 15:56 | 59.41501 | 24.82787 | 161 ft | 12 kts | 90° |
| 2026-05-05 15:57 | 59.41501 | 24.82951 | 161 ft | 12 kts | 90° |
| 2026-05-05 15:57 | 59.41500 | 24.83112 | 161 ft | 12 kts | 91° |
| 2026-05-05 15:57 | 59.41500 | 24.83267 | 161 ft | 11 kts | 90° |
| 2026-05-05 15:57 | 59.41499 | 24.83438 | 161 ft | 15 kts | 90° |
| 2026-05-05 15:58 | 59.41499 | 24.83656 | 161 ft | 16 kts | 91° |
| 2026-05-05 15:58 | 59.41498 | 24.83875 | 161 ft | 16 kts | 90° |
| 2026-05-05 15:58 | 59.41497 | 24.84085 | 161 ft | 15 kts | 90° |
| 2026-05-05 15:58 | 59.41497 | 24.84287 | 161 ft | 14 kts | 90° |
| 2026-05-05 15:59 | 59.41496 | 24.84480 | 161 ft | 14 kts | 90° |
| 2026-05-05 15:59 | 59.41496 | 24.84665 | 161 ft | 13 kts | 90° |
| 2026-05-05 15:59 | 59.41495 | 24.84842 | 161 ft | 13 kts | 90° |
| 2026-05-05 15:59 | 59.41495 | 24.85015 | 161 ft | 12 kts | 90° |
| 2026-05-05 16:00 | 59.41495 | 24.85206 | 161 ft | 16 kts | 90° |
| 2026-05-05 16:00 | 59.41494 | 24.85455 | 161 ft | 21 kts | 90° |
| 2026-05-05 16:00 | 59.41493 | 24.85759 | 161 ft | 23 kts | 90° |
| 2026-05-05 16:00 | 59.41493 | 24.86070 | 161 ft | 22 kts | 90° |
| 2026-05-05 16:01 | 59.41492 | 24.86355 | 161 ft | 18 kts | 91° |
| 2026-05-05 16:01 | 59.41491 | 24.86567 | 161 ft | 12 kts | 90° |
| 2026-05-05 16:01 | 59.41477 | 24.86685 | 161 ft | 9 kts | 129° |
| 2026-05-05 16:01 | 59.41420 | 24.86709 | 161 ft | 9 kts | 180° |
| 2026-05-05 16:02 | 59.41362 | 24.86708 | 161 ft | 8 kts | 180° |
| 2026-05-05 16:02 | 59.41319 | 24.86654 | 161 ft | 9 kts | 252° |
| 2026-05-05 16:02 | 59.41317 | 24.86520 | 159 ft | 16 kts | 270° |
| 2026-05-05 16:02 | 59.41319 | 24.85844 | 161 ft | 84 kts | 270° |
| 2026-05-05 16:03 | 59.41322 | 24.84294 | 165 ft | 141 kts | 270° |
| 2026-05-05 16:03 | 59.41329 | 24.82270 | 680 ft | 148 kts | 272° |
| 2026-05-05 16:03 | 59.41342 | 24.80169 | 1351 ft | 155 kts | 272° |
| 2026-05-05 16:03 | 59.41416 | 24.78046 | 2159 ft | 155 kts | 278° |
| 2026-05-05 16:04 | 59.41576 | 24.75947 | 2905 ft | 161 kts | 277° |
| 2026-05-05 16:04 | 59.41721 | 24.73804 | 3788 ft | 158 kts | 276° |
| 2026-05-05 16:04 | 59.41879 | 24.71549 | 4272 ft | 179 kts | 276° |
| 2026-05-05 16:04 | 59.42054 | 24.68922 | 4482 ft | 204 kts | 276° |
| 2026-05-05 16:05 | 59.42236 | 24.66066 | 4854 ft | 222 kts | 276° |
| 2026-05-05 16:05 | 59.42439 | 24.62881 | 5228 ft | 245 kts | 277° |
| 2026-05-05 16:05 | 59.42658 | 24.59574 | 6221 ft | 242 kts | 276° |
| 2026-05-05 16:05 | 59.42876 | 24.56299 | 7105 ft | 242 kts | 276° |
| 2026-05-05 16:06 | 59.43093 | 24.53034 | 8032 ft | 241 kts | 275° |
| 2026-05-05 16:06 | 59.43306 | 24.49774 | 8921 ft | 241 kts | 274° |
| 2026-05-05 16:06 | 59.43517 | 24.46492 | 9792 ft | 242 kts | 273° |
| 2026-05-05 16:06 | 59.43728 | 24.43147 | 10308 ft | 256 kts | 273° |
| 2026-05-05 16:07 | 59.43952 | 24.39505 | 10498 ft | 280 kts | 273° |
| 2026-05-05 16:07 | 59.44193 | 24.35558 | 10665 ft | 302 kts | 273° |
| 2026-05-05 16:07 | 59.44448 | 24.31392 | 10960 ft | 318 kts | 273° |
| 2026-05-05 16:07 | 59.44717 | 24.27027 | 11576 ft | 323 kts | 273° |
| 2026-05-05 16:08 | 59.44988 | 24.22631 | 12339 ft | 325 kts | 273° |
| 2026-05-05 16:08 | 59.45258 | 24.18204 | 13126 ft | 327 kts | 273° |
| 2026-05-05 16:08 | 59.45528 | 24.13747 | 13862 ft | 330 kts | 273° |
| 2026-05-05 16:08 | 59.45797 | 24.09251 | 14555 ft | 333 kts | 272° |
| 2026-05-05 16:09 | 59.46067 | 24.04714 | 15272 ft | 335 kts | 272° |
| 2026-05-05 16:09 | 59.46337 | 24.00140 | 16031 ft | 338 kts | 272° |
| 2026-05-05 16:09 | 59.46606 | 23.95557 | 16839 ft | 337 kts | 272° |
| 2026-05-05 16:09 | 59.46875 | 23.90942 | 17526 ft | 341 kts | 272° |
| 2026-05-05 16:10 | 59.47144 | 23.86280 | 18155 ft | 345 kts | 272° |
| 2026-05-05 16:10 | 59.47415 | 23.81562 | 18727 ft | 348 kts | 272° |
| 2026-05-05 16:10 | 59.47682 | 23.76876 | 19312 ft | 350 kts | 272° |
| 2026-05-05 16:10 | 59.47954 | 23.72096 | 19895 ft | 353 kts | 272° |
| 2026-05-05 16:11 | 59.48225 | 23.67281 | 20449 ft | 356 kts | 272° |
| 2026-05-05 16:11 | 59.49042 | 23.52591 | 22062 ft | 364 kts | 272° |
| 2026-05-05 16:12 | 59.49315 | 23.47614 | 22579 ft | 367 kts | 272° |
| 2026-05-05 16:12 | 59.49861 | 23.37548 | 23552 ft | 372 kts | 272° |
| 2026-05-05 16:13 | 59.50682 | 23.22196 | 24837 ft | 378 kts | 271° |
| 2026-05-05 16:13 | 59.50953 | 23.17024 | 25229 ft | 381 kts | 271° |
| 2026-05-05 16:13 | 59.51246 | 23.11885 | 25603 ft | 384 kts | 273° |
| 2026-05-05 16:14 | 59.52080 | 23.01427 | 26349 ft | 389 kts | 275° |
| 2026-05-05 16:14 | 59.52988 | 22.90857 | 27059 ft | 393 kts | 275° |
| 2026-05-05 16:15 | 59.53880 | 22.80181 | 27787 ft | 395 kts | 274° |
| 2026-05-05 16:15 | 59.54746 | 22.69539 | 28882 ft | 390 kts | 274° |
| 2026-05-05 16:16 | 59.55579 | 22.59133 | 30107 ft | 382 kts | 274° |
| 2026-05-05 16:16 | 59.56394 | 22.48761 | 30717 ft | 384 kts | 274° |
| 2026-05-05 16:17 | 59.57202 | 22.38352 | 31461 ft | 383 kts | 274° |
| 2026-05-05 16:17 | 59.57602 | 22.33171 | 31833 ft | 382 kts | 274° |
| 2026-05-05 16:18 | 59.58398 | 22.22781 | 32492 ft | 382 kts | 274° |
| 2026-05-05 16:18 | 59.58792 | 22.17587 | 32850 ft | 382 kts | 274° |
| 2026-05-05 16:18 | 59.59575 | 22.07197 | 33472 ft | 383 kts | 274° |
| 2026-05-05 16:19 | 59.59963 | 22.02000 | 33852 ft | 382 kts | 274° |
| 2026-05-05 16:19 | 59.61119 | 21.86365 | 33846 ft | 383 kts | 274° |
| 2026-05-05 16:20 | 59.62494 | 21.67440 | 33856 ft | 378 kts | 274° |
| 2026-05-05 16:22 | 59.64312 | 21.41725 | 33845 ft | 379 kts | 274° |
| 2026-05-05 16:23 | 59.65740 | 21.21015 | 33848 ft | 381 kts | 273° |
| 2026-05-05 16:23 | 59.66795 | 21.05388 | 33844 ft | 382 kts | 273° |
| 2026-05-05 16:24 | 59.67144 | 21.00143 | 33392 ft | 388 kts | 273° |
| 2026-05-05 16:24 | 59.67493 | 20.94879 | 32805 ft | 385 kts | 273° |
| 2026-05-05 16:24 | 59.68178 | 20.84490 | 31778 ft | 375 kts | 273° |
| 2026-05-05 16:25 | 59.68506 | 20.79471 | 31309 ft | 370 kts | 272° |
| 2026-05-05 16:25 | 59.69150 | 20.69506 | 30409 ft | 360 kts | 272° |
| 2026-05-05 16:25 | 59.69463 | 20.64618 | 29947 ft | 356 kts | 272° |
| 2026-05-05 16:26 | 59.70071 | 20.55007 | 28965 ft | 346 kts | 272° |
| 2026-05-05 16:26 | 59.70655 | 20.45687 | 28068 ft | 335 kts | 272° |
| 2026-05-05 16:27 | 59.70937 | 20.41143 | 27633 ft | 330 kts | 271° |
| 2026-05-05 16:27 | 59.71214 | 20.36650 | 27198 ft | 326 kts | 271° |
| 2026-05-05 16:27 | 59.71482 | 20.32269 | 26776 ft | 322 kts | 271° |
| 2026-05-05 16:27 | 59.71749 | 20.27885 | 26355 ft | 318 kts | 271° |
| 2026-05-05 16:28 | 59.72011 | 20.23552 | 25909 ft | 315 kts | 271° |
| 2026-05-05 16:28 | 59.72271 | 20.19247 | 25514 ft | 312 kts | 271° |
| 2026-05-05 16:28 | 59.72526 | 20.14984 | 25092 ft | 309 kts | 271° |
| 2026-05-05 16:28 | 59.72777 | 20.10765 | 24687 ft | 308 kts | 271° |
| 2026-05-05 16:29 | 59.73025 | 20.06565 | 24283 ft | 306 kts | 271° |
| 2026-05-05 16:29 | 59.73272 | 20.02363 | 23924 ft | 309 kts | 271° |
| 2026-05-05 16:29 | 59.73521 | 19.98086 | 23516 ft | 315 kts | 271° |
| 2026-05-05 16:29 | 59.73773 | 19.93769 | 23022 ft | 315 kts | 271° |
| 2026-05-05 16:30 | 59.74024 | 19.89493 | 22601 ft | 309 kts | 271° |
| 2026-05-05 16:30 | 59.74265 | 19.85337 | 22207 ft | 304 kts | 271° |
| 2026-05-05 16:30 | 59.74506 | 19.81154 | 21808 ft | 299 kts | 271° |
| 2026-05-05 16:30 | 59.74733 | 19.77135 | 21430 ft | 294 kts | 270° |
| 2026-05-05 16:31 | 59.74747 | 19.73147 | 21062 ft | 286 kts | 263° |
| 2026-05-05 16:31 | 59.74526 | 19.69269 | 20781 ft | 279 kts | 258° |
| 2026-05-05 16:31 | 59.74079 | 19.65507 | 20525 ft | 282 kts | 254° |
| 2026-05-05 16:31 | 59.73562 | 19.61761 | 20163 ft | 279 kts | 254° |
| 2026-05-05 16:32 | 59.73041 | 19.58074 | 19802 ft | 276 kts | 253° |
| 2026-05-05 16:32 | 59.72532 | 19.54484 | 19446 ft | 272 kts | 253° |
| 2026-05-05 16:32 | 59.72019 | 19.50845 | 19076 ft | 269 kts | 254° |
| 2026-05-05 16:32 | 59.71518 | 19.47290 | 18716 ft | 267 kts | 254° |
| 2026-05-05 16:33 | 59.71030 | 19.43821 | 18369 ft | 264 kts | 253° |
| 2026-05-05 16:33 | 59.70535 | 19.40305 | 18003 ft | 264 kts | 254° |
| 2026-05-05 16:33 | 59.70040 | 19.36790 | 17615 ft | 265 kts | 254° |
| 2026-05-05 16:33 | 59.69538 | 19.33229 | 17248 ft | 274 kts | 254° |
| 2026-05-05 16:34 | 59.69014 | 19.29519 | 16852 ft | 284 kts | 254° |
| 2026-05-05 16:34 | 59.68481 | 19.25751 | 16452 ft | 283 kts | 254° |
| 2026-05-05 16:34 | 59.67943 | 19.22036 | 16048 ft | 279 kts | 251° |
| 2026-05-05 16:34 | 59.67143 | 19.18602 | 15679 ft | 277 kts | 244° |
| 2026-05-05 16:35 | 59.66217 | 19.15268 | 15284 ft | 275 kts | 243° |
| 2026-05-05 16:35 | 59.65279 | 19.11991 | 14937 ft | 273 kts | 243° |
| 2026-05-05 16:35 | 59.64335 | 19.08738 | 14631 ft | 272 kts | 243° |
| 2026-05-05 16:35 | 59.63378 | 19.05516 | 14214 ft | 275 kts | 243° |
| 2026-05-05 16:36 | 59.62388 | 19.02204 | 13432 ft | 286 kts | 243° |
| 2026-05-05 16:36 | 59.61382 | 18.98839 | 13030 ft | 283 kts | 243° |
| 2026-05-05 16:36 | 59.60387 | 18.95502 | 12660 ft | 280 kts | 243° |
| 2026-05-05 16:36 | 59.59405 | 18.92202 | 12332 ft | 276 kts | 243° |
| 2026-05-05 16:37 | 59.58443 | 18.88959 | 12034 ft | 272 kts | 243° |
| 2026-05-05 16:37 | 59.57490 | 18.85731 | 11756 ft | 274 kts | 243° |
| 2026-05-05 16:37 | 59.56494 | 18.82324 | 11494 ft | 304 kts | 243° |
| 2026-05-05 16:37 | 59.55416 | 18.78583 | 11267 ft | 317 kts | 243° |
| 2026-05-05 16:38 | 59.54331 | 18.74798 | 10732 ft | 319 kts | 242° |
| 2026-05-05 16:38 | 59.53243 | 18.70975 | 10126 ft | 320 kts | 242° |
| 2026-05-05 16:38 | 59.52163 | 18.67151 | 9765 ft | 317 kts | 242° |
| 2026-05-05 16:38 | 59.51100 | 18.63360 | 9401 ft | 316 kts | 243° |
| 2026-05-05 16:39 | 59.50048 | 18.59598 | 9080 ft | 319 kts | 243° |
| 2026-05-05 16:39 | 59.49005 | 18.55721 | 8883 ft | 321 kts | 245° |
| 2026-05-05 16:39 | 59.48070 | 18.51713 | 8617 ft | 322 kts | 247° |
| 2026-05-05 16:39 | 59.47161 | 18.47681 | 8317 ft | 322 kts | 247° |
| 2026-05-05 16:40 | 59.46258 | 18.43654 | 7995 ft | 321 kts | 247° |
| 2026-05-05 16:40 | 59.45368 | 18.39665 | 7725 ft | 315 kts | 248° |
| 2026-05-05 16:40 | 59.44496 | 18.35762 | 7421 ft | 308 kts | 248° |
| 2026-05-05 16:40 | 59.43638 | 18.31939 | 7116 ft | 302 kts | 248° |
| 2026-05-05 16:41 | 59.42794 | 18.28203 | 6838 ft | 297 kts | 248° |
| 2026-05-05 16:41 | 59.42115 | 18.24420 | 6560 ft | 290 kts | 256° |
| 2026-05-05 16:41 | 59.41602 | 18.20607 | 6276 ft | 286 kts | 257° |
| 2026-05-05 16:41 | 59.41122 | 18.16916 | 6173 ft | 277 kts | 257° |
| 2026-05-05 16:42 | 59.40656 | 18.13308 | 6043 ft | 269 kts | 257° |
| 2026-05-05 16:42 | 59.40204 | 18.09808 | 5935 ft | 260 kts | 257° |
| 2026-05-05 16:42 | 59.39768 | 18.06424 | 5827 ft | 252 kts | 257° |
| 2026-05-05 16:42 | 59.39343 | 18.03131 | 5731 ft | 245 kts | 257° |
| 2026-05-05 16:43 | 59.39105 | 17.99880 | 5498 ft | 240 kts | 273° |
| 2026-05-05 16:43 | 59.39243 | 17.96624 | 5252 ft | 237 kts | 277° |
| 2026-05-05 16:43 | 59.39430 | 17.93429 | 5006 ft | 233 kts | 280° |
| 2026-05-05 16:43 | 59.40092 | 17.90592 | 4750 ft | 232 kts | 314° |
| 2026-05-05 16:44 | 59.41489 | 17.89069 | 4610 ft | 230 kts | 338° |
| 2026-05-05 16:44 | 59.43010 | 17.88139 | 4231 ft | 237 kts | 350° |
| 2026-05-05 16:44 | 59.44667 | 17.88505 | 3898 ft | 244 kts | 10° |
| 2026-05-05 16:44 | 59.46347 | 17.89186 | 3538 ft | 247 kts | 6° |
| 2026-05-05 16:45 | 59.48007 | 17.89771 | 3182 ft | 238 kts | 6° |
| 2026-05-05 16:45 | 59.49596 | 17.90341 | 2874 ft | 225 kts | 7° |
| 2026-05-05 16:45 | 59.51076 | 17.90880 | 2535 ft | 213 kts | 6° |
| 2026-05-05 16:45 | 59.52493 | 17.91394 | 2246 ft | 201 kts | 6° |
| 2026-05-05 16:46 | 59.53832 | 17.91879 | 1991 ft | 190 kts | 6° |
| 2026-05-05 16:46 | 59.55102 | 17.92340 | 1729 ft | 181 kts | 6° |
| 2026-05-05 16:46 | 59.56311 | 17.92780 | 1480 ft | 170 kts | 6° |
| 2026-05-05 16:46 | 59.57418 | 17.93181 | 1252 ft | 154 kts | 6° |
| 2026-05-05 16:47 | 59.58430 | 17.93548 | 1027 ft | 144 kts | 5° |
| 2026-05-05 16:47 | 59.59407 | 17.93915 | 826 ft | 143 kts | 3° |
| 2026-05-05 16:47 | 59.60386 | 17.94261 | 632 ft | 143 kts | 5° |
| 2026-05-05 16:47 | 59.61360 | 17.94608 | 429 ft | 142 kts | 8° |
| 2026-05-05 16:48 | 59.62326 | 17.94971 | 245 ft | 141 kts | 6° |
| 2026-05-05 16:48 | 59.63262 | 17.95302 | 125 ft | 131 kts | 9° |
| 2026-05-05 16:48 | 59.64002 | 17.95575 | 111 ft | 73 kts | 10° |
| 2026-05-05 16:48 | 59.64280 | 17.95674 | 110 ft | 28 kts | 10° |
| 2026-05-05 16:49 | 59.64463 | 17.95697 | 107 ft | 22 kts | 354° |
| 2026-05-05 16:49 | 59.64588 | 17.95634 | 106 ft | 12 kts | 340° |
| 2026-05-05 16:49 | 59.64657 | 17.95583 | 106 ft | 9 kts | 339° |
| 2026-05-05 16:49 | 59.64685 | 17.95561 | 106 ft | 3 kts | 334° |
| 2026-05-05 16:50 | 59.64690 | 17.95556 | 106 ft | 0 kts | 331° |
| 2026-05-05 16:50 | 59.64694 | 17.95551 | 106 ft | 1 kts | 323° |
| 2026-05-05 16:50 | 59.64702 | 17.95486 | 104 ft | 9 kts | 265° |
| 2026-05-05 16:50 | 59.64656 | 17.95399 | 103 ft | 10 kts | 197° |
| 2026-05-05 16:51 | 59.64595 | 17.95339 | 101 ft | 10 kts | 216° |
| 2026-05-05 16:51 | 59.64551 | 17.95238 | 104 ft | 10 kts | 238° |
| 2026-05-05 16:51 | 59.64517 | 17.95127 | 103 ft | 9 kts | 238° |
| 2026-05-05 16:51 | 59.64483 | 17.95021 | 102 ft | 9 kts | 238° |
| 2026-05-05 16:52 | 59.64449 | 17.94916 | 103 ft | 9 kts | 237° |
| 2026-05-05 16:52 | 59.64416 | 17.94810 | 103 ft | 10 kts | 237° |
| 2026-05-05 16:52 | 59.64376 | 17.94685 | 102 ft | 12 kts | 238° |
| 2026-05-05 16:52 | 59.64327 | 17.94532 | 102 ft | 15 kts | 238° |
| 2026-05-05 16:53 | 59.64266 | 17.94342 | 102 ft | 18 kts | 238° |
| 2026-05-05 16:53 | 59.64198 | 17.94129 | 104 ft | 18 kts | 237° |
| 2026-05-05 16:53 | 59.64131 | 17.93919 | 108 ft | 18 kts | 237° |
| 2026-05-05 16:53 | 59.64067 | 17.93720 | 110 ft | 17 kts | 238° |
| 2026-05-05 16:54 | 59.64006 | 17.93523 | 111 ft | 16 kts | 241° |
| 2026-05-05 16:54 | 59.63992 | 17.93306 | 109 ft | 16 kts | 280° |
| 2026-05-05 16:54 | 59.64036 | 17.93112 | 108 ft | 15 kts | 297° |
| 2026-05-05 16:54 | 59.64085 | 17.92930 | 110 ft | 15 kts | 298° |
| 2026-05-05 16:55 | 59.64131 | 17.92756 | 111 ft | 14 kts | 297° |
| 2026-05-05 16:55 | 59.64175 | 17.92589 | 113 ft | 13 kts | 297° |
| 2026-05-05 16:55 | 59.64217 | 17.92430 | 114 ft | 13 kts | 297° |
| 2026-05-05 16:55 | 59.64258 | 17.92275 | 114 ft | 13 kts | 297° |
| 2026-05-05 16:56 | 59.64299 | 17.92118 | 113 ft | 13 kts | 297° |
| 2026-05-05 16:56 | 59.64344 | 17.91959 | 111 ft | 14 kts | 312° |
| 2026-05-05 16:56 | 59.64433 | 17.91939 | 111 ft | 13 kts | 8° |
| 2026-05-05 16:56 | 59.64525 | 17.91973 | 109 ft | 13 kts | 10° |
| 2026-05-05 16:57 | 59.64613 | 17.92004 | 108 ft | 13 kts | 10° |
| 2026-05-05 16:57 | 59.64697 | 17.92034 | 107 ft | 11 kts | 10° |
| 2026-05-05 16:57 | 59.64744 | 17.92126 | 109 ft | 10 kts | 89° |
| 2026-05-05 16:57 | 59.64727 | 17.92263 | 111 ft | 10 kts | 106° |
| 2026-05-05 16:58 | 59.64707 | 17.92394 | 111 ft | 10 kts | 106° |
| 2026-05-05 16:58 | 59.64691 | 17.92509 | 111 ft | 7 kts | 101° |
| 2026-05-05 16:58 | 59.64714 | 17.92571 | 111 ft | 5 kts | 36° |
| 2026-05-05 16:58 | 59.64727 | 17.92588 | 111 ft | 1 kts | 34° |
| 2026-05-05 16:59 | 59.64733 | 17.92596 | 111 ft | 1 kts | 34° |
| 2026-05-05 16:59 | 59.64734 | 17.92597 | 111 ft | 0 kts | 34° |
| 2026-05-05 17:05 | 59.64734 | 17.92596 | 111 ft | 0 kts | 34° |
| 2026-05-05 17:06 | 59.64733 | 17.92596 | 111 ft | 0 kts | 34° |